createdAt,value
2022-11-02T00:00:40.101Z,12.15
2022-11-02T00:03:28.735Z,11.90
2022-11-02T00:05:55.960Z,15.32
2022-11-02T00:08:23.358Z,13.45
2022-11-02T00:10:50.540Z,13.70
2022-11-02T00:13:20.447Z,14.60
2022-11-02T00:15:47.941Z,14.35
2022-11-02T00:18:15.749Z,13.73
2022-11-02T00:20:43.724Z,16.00
2022-11-02T00:23:13.506Z,16.33
2022-11-02T00:25:50.376Z,16.80
2022-11-02T00:28:17.904Z,17.00
2022-11-02T00:30:45.151Z,18.40
2022-11-02T00:33:12.722Z,17.83
2022-11-02T00:35:40.393Z,18.40
2022-11-02T00:38:08.235Z,18.80
2022-11-02T00:40:35.378Z,19.08
2022-11-02T00:43:02.815Z,19.23
2022-11-02T00:45:30.068Z,20.55
2022-11-02T00:47:57.783Z,21.13
2022-11-02T00:50:25.153Z,18.95
2022-11-02T00:52:52.498Z,20.42
2022-11-02T00:55:19.788Z,19.83
2022-11-02T00:57:47.562Z,20.55
2022-11-02T01:00:15.711Z,19.33
2022-11-02T01:02:43.484Z,19.58
2022-11-02T01:05:11.428Z,19.85
2022-11-02T01:07:39.363Z,20.20
2022-11-02T01:10:09.005Z,18.98
2022-11-02T01:15:10.423Z,18.25
2022-11-02T01:17:38.593Z,19.30
2022-11-02T01:20:06.972Z,20.02
2022-11-02T01:22:34.487Z,21.88
2022-11-02T01:25:01.762Z,21.60
2022-11-02T01:27:29.359Z,21.00
2022-11-02T01:29:57.034Z,21.80
2022-11-02T01:32:24.495Z,22.70
2022-11-02T01:34:51.674Z,21.58
2022-11-02T01:37:19.039Z,21.20
2022-11-02T01:39:46.258Z,19.73
2022-11-02T01:42:22.534Z,19.88
2022-11-02T01:44:49.759Z,28.02
2022-11-02T01:47:28.625Z,25.90
2022-11-02T01:50:10.338Z,24.40
2022-11-02T01:52:39.127Z,38.63
2022-11-02T01:55:10.693Z,26.25
2022-11-02T01:57:40.081Z,20.90
2022-11-02T02:00:11.062Z,21.08
2022-11-02T02:02:51.632Z,20.45
2022-11-02T02:05:22.053Z,22.65
2022-11-02T02:07:52.144Z,20.42
2022-11-02T02:10:19.738Z,21.05
2022-11-02T02:12:48.095Z,21.85
2022-11-02T02:15:22.807Z,19.83
2022-11-02T02:18:02.657Z,19.88
2022-11-02T02:21:00.440Z,19.27
2022-11-02T02:24:05.698Z,19.60
2022-11-02T02:27:02.347Z,19.08
2022-11-02T02:30:01.994Z,18.90
2022-11-02T02:32:54.584Z,19.58
2022-11-02T02:35:58.922Z,16.02
2022-11-02T02:38:35.827Z,17.67
2022-11-02T02:41:09.235Z,16.90
2022-11-02T02:43:47.510Z,19.23
2022-11-02T02:46:46.566Z,19.95
2022-11-02T02:49:20.503Z,17.63
2022-11-02T02:51:48.980Z,17.60
2022-11-02T02:54:43.097Z,17.50
2022-11-02T02:57:15.957Z,16.90
2022-11-02T02:59:46.699Z,16.27
2022-11-02T03:02:23.469Z,17.90
2022-11-02T03:04:50.892Z,18.45
2022-11-02T03:07:26.368Z,17.02
2022-11-02T03:10:21.096Z,17.42
2022-11-02T03:13:08.585Z,18.20
2022-11-02T03:15:42.079Z,18.17
2022-11-02T03:18:44.639Z,19.02
2022-11-02T03:21:54.145Z,19.08
2022-11-02T03:24:34.213Z,18.60
2022-11-02T03:29:52.908Z,21.00
2022-11-02T03:32:39.334Z,24.17
2022-11-02T03:35:17.200Z,26.58
2022-11-02T03:37:56.129Z,31.05
2022-11-02T03:40:28.792Z,30.17
2022-11-02T03:42:57.987Z,30.70
2022-11-02T03:45:31.456Z,30.05
2022-11-02T03:48:04.581Z,28.73
2022-11-02T03:50:34.116Z,29.08
2022-11-02T03:53:11.058Z,28.23
2022-11-02T03:55:53.227Z,28.40
2022-11-02T03:58:20.706Z,29.40
2022-11-02T04:01:02.124Z,28.60
2022-11-02T04:03:33.180Z,31.05
2022-11-02T04:06:01.975Z,29.17
2022-11-02T04:08:36.715Z,28.88
2022-11-02T04:11:26.900Z,28.05
2022-11-02T04:14:16.977Z,27.45
2022-11-02T04:16:45.782Z,28.17
2022-11-02T04:19:30.582Z,29.10
2022-11-02T04:22:19.944Z,28.98
2022-11-02T04:25:09.636Z,28.05
2022-11-02T04:27:38.081Z,27.88
2022-11-02T04:30:05.875Z,29.42
2022-11-02T04:33:01.695Z,30.33
2022-11-02T04:35:34.680Z,31.55
2022-11-02T04:38:22.101Z,28.35
2022-11-02T04:41:09.186Z,29.55
2022-11-02T04:43:36.896Z,28.23
2022-11-02T04:46:04.481Z,28.50
2022-11-02T04:48:34.970Z,27.77
2022-11-02T04:51:02.939Z,29.70
2022-11-02T04:53:31.135Z,28.63
2022-11-02T04:55:58.552Z,29.05
2022-11-02T04:58:27.131Z,29.75
2022-11-02T05:00:54.342Z,29.23
2022-11-02T05:03:21.816Z,30.63
2022-11-02T05:05:54.934Z,30.83
2022-11-02T05:08:23.652Z,29.08
2022-11-02T05:10:58.023Z,29.05
2022-11-02T05:13:27.139Z,30.42
2022-11-02T05:15:58.246Z,33.75
2022-11-02T05:18:28.414Z,38.03
2022-11-02T05:21:01.349Z,35.83
2022-11-02T05:23:30.657Z,34.17
2022-11-02T05:26:02.103Z,30.27
2022-11-02T05:28:32.040Z,30.52
2022-11-02T05:31:01.627Z,30.73
2022-11-02T05:33:31.897Z,31.65
2022-11-02T05:36:04.055Z,30.75
2022-11-02T05:38:32.614Z,28.83
2022-11-02T05:41:00.743Z,29.45
2022-11-02T05:43:32.128Z,28.75
2022-11-02T05:46:02.967Z,28.83
2022-11-02T05:48:33.455Z,27.93
2022-11-02T05:51:02.988Z,26.50
2022-11-02T05:53:32.729Z,28.83
2022-11-02T05:56:01.012Z,28.25
2022-11-02T05:58:29.528Z,29.48
2022-11-02T06:01:00.922Z,30.63
2022-11-02T06:03:28.666Z,31.17
2022-11-02T06:05:57.543Z,30.65
2022-11-02T06:08:25.634Z,31.03
2022-11-02T06:10:53.237Z,31.10
2022-11-02T06:13:20.558Z,32.00
2022-11-02T06:15:47.627Z,34.28
2022-11-02T06:18:14.932Z,32.38
2022-11-02T06:20:42.061Z,31.17
2022-11-02T06:23:09.639Z,33.58
2022-11-02T06:25:36.792Z,33.45
2022-11-02T06:28:04.398Z,31.63
2022-11-02T06:30:32.570Z,31.40
2022-11-02T06:33:03.007Z,31.45
2022-11-02T06:35:34.094Z,33.70
2022-11-02T06:38:01.826Z,32.05
2022-11-02T06:40:29.397Z,30.42
2022-11-02T06:43:17.070Z,32.40
2022-11-02T06:45:45.133Z,29.73
2022-11-02T06:48:12.730Z,31.10
2022-11-02T06:50:40.043Z,31.25
2022-11-02T06:53:07.878Z,33.33
2022-11-02T06:55:35.362Z,30.85
2022-11-02T06:58:02.978Z,32.78
2022-11-02T07:00:30.503Z,33.28
2022-11-02T07:03:03.346Z,31.83
2022-11-02T07:05:31.439Z,31.35
2022-11-02T07:07:59.301Z,32.17
2022-11-02T07:10:27.866Z,30.35
2022-11-02T07:12:57.275Z,30.48
2022-11-02T07:15:26.339Z,29.90
2022-11-02T07:17:54.111Z,29.67
2022-11-02T07:20:21.823Z,29.08
2022-11-02T07:22:57.461Z,29.13
2022-11-02T07:25:25.913Z,28.00
2022-11-02T07:27:54.008Z,30.05
2022-11-02T07:30:21.219Z,31.50
2022-11-02T07:32:48.875Z,37.67
2022-11-02T07:35:17.633Z,34.47
2022-11-02T07:37:45.223Z,31.05
2022-11-02T07:40:14.551Z,29.38
2022-11-02T07:42:46.715Z,26.45
2022-11-02T07:45:17.162Z,25.83
2022-11-02T07:47:54.335Z,27.13
2022-11-02T07:50:49.859Z,25.77
2022-11-02T07:54:15.788Z,24.42
2022-11-02T07:57:15.806Z,26.63
2022-11-02T07:59:59.189Z,27.13
2022-11-02T08:03:04.296Z,26.48
2022-11-02T08:08:43.393Z,27.55
2022-11-02T08:12:08.735Z,27.50
2022-11-02T08:14:37.153Z,26.88
2022-11-02T08:17:04.443Z,25.40
2022-11-02T08:19:31.980Z,25.85
2022-11-02T08:21:59.309Z,25.05
2022-11-02T08:24:26.584Z,26.48
2022-11-02T08:26:55.028Z,24.45
2022-11-02T08:29:22.481Z,23.67
2022-11-02T08:31:50.047Z,24.25
2022-11-02T08:34:17.692Z,23.50
2022-11-02T08:36:46.346Z,23.95
2022-11-02T08:39:23.140Z,21.38
2022-11-02T08:41:51.353Z,21.08
2022-11-02T08:44:19.148Z,21.48
2022-11-02T08:46:47.211Z,19.90
2022-11-02T08:49:15.006Z,21.05
2022-11-02T08:52:08.168Z,21.48
2022-11-02T08:54:35.368Z,20.83
2022-11-02T08:57:02.960Z,22.60
2022-11-02T08:59:30.178Z,21.23
2022-11-02T09:01:57.876Z,19.90
2022-11-02T09:04:25.368Z,19.75
2022-11-02T09:06:52.967Z,19.75
2022-11-02T09:09:20.244Z,20.00
2022-11-02T09:11:50.538Z,18.70
2022-11-02T09:14:17.968Z,18.02
2022-11-02T09:16:45.565Z,17.38
2022-11-02T09:19:12.738Z,17.38
2022-11-02T09:21:40.141Z,18.05
2022-11-02T09:24:07.751Z,16.02
2022-11-02T09:26:35.348Z,17.80
2022-11-02T09:29:02.642Z,14.95
2022-11-02T09:31:30.325Z,14.65
2022-11-02T09:33:57.552Z,14.45
2022-11-02T09:36:25.095Z,15.30
2022-11-02T09:38:52.294Z,15.57
2022-11-02T09:41:32.118Z,14.88
2022-11-02T09:44:11.141Z,15.88
2022-11-02T09:46:41.696Z,15.02
2022-11-02T09:49:14.469Z,15.48
2022-11-02T09:51:56.181Z,14.38
2022-11-02T09:54:29.815Z,12.55
2022-11-02T09:57:09.302Z,14.07
2022-11-02T09:59:36.646Z,15.63
2022-11-02T10:02:44.646Z,15.10
2022-11-02T10:05:43.174Z,16.35
2022-11-02T10:08:19.106Z,17.02
2022-11-02T10:11:11.065Z,17.80
2022-11-02T10:13:41.429Z,19.02
2022-11-02T10:18:54.800Z,18.05
2022-11-02T10:21:37.116Z,19.25
2022-11-02T10:24:35.452Z,19.40
2022-11-02T10:27:13.944Z,19.35
2022-11-02T10:29:51.806Z,20.20
2022-11-02T10:32:19.242Z,21.38
2022-11-02T10:34:58.653Z,20.05
2022-11-02T10:38:11.951Z,17.00
2022-11-02T10:41:03.257Z,17.73
2022-11-02T10:43:52.227Z,17.20
2022-11-02T10:46:32.320Z,19.08
2022-11-02T10:49:31.673Z,19.27
2022-11-02T10:51:59.308Z,16.80
2022-11-02T10:54:33.225Z,15.77
2022-11-02T10:57:11.838Z,17.75
2022-11-02T10:59:39.355Z,17.67
2022-11-02T11:02:14.840Z,17.10
2022-11-02T11:04:42.930Z,17.17
2022-11-02T11:07:21.032Z,15.77
2022-11-02T11:09:57.567Z,17.17
2022-11-02T11:12:38.940Z,17.30
2022-11-02T11:20:43.490Z,16.70
2022-11-02T11:23:21.334Z,17.85
2022-11-02T11:25:57.388Z,16.63
2022-11-02T11:28:41.097Z,15.15
2022-11-02T11:31:14.727Z,15.15
2022-11-02T11:33:57.422Z,14.38
2022-11-02T11:36:31.249Z,15.45
2022-11-02T11:39:02.607Z,15.95
2022-11-02T11:41:32.854Z,16.05
2022-11-02T11:44:02.498Z,16.60
2022-11-02T11:46:47.336Z,15.15
2022-11-02T11:52:31.649Z,14.32
2022-11-02T11:55:02.291Z,14.65
2022-11-02T11:57:32.355Z,14.02
2022-11-02T12:00:04.918Z,14.52
2022-11-02T12:02:39.535Z,15.95
2022-11-02T12:05:20.909Z,14.60
2022-11-02T12:08:35.387Z,14.52
2022-11-02T12:11:05.862Z,13.25
2022-11-02T12:14:06.683Z,12.68
2022-11-02T12:16:46.280Z,12.82
2022-11-02T12:19:22.242Z,13.52
2022-11-02T12:22:05.694Z,13.27
2022-11-02T12:24:57.341Z,11.88
2022-11-02T12:27:41.640Z,14.13
2022-11-02T12:30:47.202Z,12.88
2022-11-02T12:33:22.253Z,13.50
2022-11-02T12:36:07.734Z,13.05
2022-11-02T12:38:37.982Z,14.30
2022-11-02T12:46:20.875Z,13.07
2022-11-02T12:48:57.316Z,14.63
2022-11-02T12:51:30.097Z,13.88
2022-11-02T12:54:09.612Z,19.30
2022-11-02T12:56:49.670Z,16.83
2022-11-02T12:59:22.923Z,15.52
2022-11-02T13:01:55.021Z,16.95
2022-11-02T13:04:30.180Z,11.93
2022-11-02T13:07:11.412Z,13.02
2022-11-02T13:12:14.778Z,13.98
2022-11-02T13:15:01.544Z,10.95
2022-11-02T13:18:00.860Z,12.43
2022-11-02T13:20:36.006Z,11.48
2022-11-02T13:23:06.541Z,9.70
2022-11-02T13:25:50.034Z,10.05
2022-11-02T13:28:54.135Z,8.10
2022-11-02T13:31:29.896Z,8.25
2022-11-02T13:34:00.524Z,8.75
2022-11-02T13:36:27.796Z,9.70
2022-11-02T13:39:19.709Z,9.73
2022-11-02T13:42:07.916Z,23.30
2022-11-02T13:44:50.347Z,10.70
2022-11-02T13:48:02.145Z,31.60
2022-11-02T13:50:53.156Z,13.68
2022-11-02T13:53:52.603Z,9.27
2022-11-02T13:57:32.965Z,12.93
2022-11-02T14:00:46.340Z,20.98
2022-11-02T14:07:40.504Z,20.05
2022-11-02T14:10:19.020Z,33.72
2022-11-02T14:12:47.753Z,26.15
2022-11-02T14:15:15.456Z,34.78
2022-11-02T14:18:01.812Z,24.65
2022-11-02T14:20:41.605Z,22.70
2022-11-02T14:23:11.679Z,14.30
2022-11-02T14:25:52.408Z,16.30
2022-11-02T14:28:30.143Z,17.90
2022-11-02T14:31:03.317Z,13.40
2022-11-02T14:33:52.678Z,9.80
2022-11-02T14:36:20.340Z,10.70
2022-11-02T14:39:10.904Z,11.23
2022-11-02T14:41:41.318Z,10.05
2022-11-02T14:48:27.322Z,15.57
2022-11-02T14:51:35.851Z,15.48
2022-11-02T14:57:33.665Z,13.82
2022-11-02T15:15:20.816Z,10.10
2022-11-02T15:24:35.686Z,18.67
2022-11-02T15:27:46.150Z,18.38
2022-11-02T15:30:43.597Z,11.00
2022-11-02T15:38:17.578Z,11.50
2022-11-02T15:41:31.683Z,8.43
2022-11-02T15:44:41.650Z,8.45
2022-11-02T15:50:38.945Z,8.73
2022-11-02T15:54:17.713Z,9.45
2022-11-02T15:57:20.916Z,9.55
2022-11-02T15:59:51.563Z,15.50
2022-11-02T16:02:32.075Z,13.07
2022-11-02T16:05:06.170Z,7.93
2022-11-02T16:07:56.914Z,19.08
2022-11-02T16:10:28.199Z,9.55
2022-11-02T16:13:07.923Z,9.40
2022-11-02T16:18:03.140Z,11.13
2022-11-02T16:20:37.234Z,12.70
2022-11-02T16:23:06.908Z,11.65
2022-11-02T16:25:47.664Z,11.13
2022-11-02T16:28:31.412Z,8.30
2022-11-02T16:31:18.133Z,9.68
2022-11-02T16:33:58.072Z,12.15
2022-11-02T16:36:31.348Z,14.25
2022-11-02T16:39:01.890Z,19.20
2022-11-02T16:41:32.936Z,10.10
2022-11-02T16:44:10.110Z,7.78
2022-11-02T16:46:49.816Z,7.35
2022-11-02T16:49:24.757Z,7.57
2022-11-02T16:51:54.770Z,7.45
2022-11-02T16:54:34.202Z,10.70
2022-11-02T16:59:57.921Z,8.48
2022-11-02T17:02:46.479Z,7.43
2022-11-02T17:05:26.070Z,9.02
2022-11-02T17:08:04.809Z,8.57
2022-11-02T17:10:34.220Z,8.80
2022-11-02T17:13:07.129Z,12.52
2022-11-02T17:15:34.988Z,19.05
2022-11-02T17:18:08.821Z,13.40
2022-11-02T17:20:40.520Z,27.63
2022-11-02T17:23:32.241Z,37.83
2022-11-02T17:26:27.360Z,33.30
2022-11-02T17:29:16.595Z,46.30
2022-11-02T17:31:43.852Z,82.43
2022-11-02T17:34:19.126Z,65.68
2022-11-02T17:36:49.012Z,69.75
2022-11-02T17:39:19.280Z,36.45
2022-11-02T17:42:11.830Z,49.95
2022-11-02T17:44:39.690Z,120.13
2022-11-02T17:47:12.862Z,66.07
2022-11-02T17:49:40.735Z,21.13
2022-11-02T17:52:13.069Z,35.75
2022-11-02T17:54:40.728Z,45.72
2022-11-02T17:57:12.956Z,44.70
2022-11-02T17:59:40.716Z,35.85
2022-11-02T18:02:12.866Z,140.20
2022-11-02T18:04:40.777Z,37.88
2022-11-02T18:07:08.193Z,66.63
2022-11-02T18:09:35.892Z,209.02
2022-11-02T18:12:03.379Z,45.03
2022-11-02T18:14:31.172Z,31.15
2022-11-02T18:16:58.627Z,9.27
2022-11-02T18:19:26.206Z,10.85
2022-11-02T18:21:53.797Z,7.07
2022-11-02T18:24:21.384Z,7.43
2022-11-02T18:26:48.634Z,5.85
2022-11-02T18:29:16.744Z,6.70
2022-11-02T18:31:44.366Z,6.95
2022-11-02T18:34:12.440Z,6.68
2022-11-02T18:36:40.749Z,7.05
2022-11-02T18:39:09.588Z,7.43
2022-11-02T18:41:37.785Z,6.60
2022-11-02T18:44:13.530Z,9.25
2022-11-02T18:46:43.072Z,8.38
2022-11-02T18:49:11.513Z,7.22
2022-11-02T18:51:43.219Z,6.25
2022-11-02T18:54:13.258Z,8.32
2022-11-02T18:56:41.602Z,6.90
2022-11-02T18:59:10.203Z,7.72
2022-11-02T19:01:38.106Z,8.40
2022-11-02T19:04:06.139Z,7.32
2022-11-02T19:06:52.619Z,12.57
2022-11-02T19:09:23.606Z,7.75
2022-11-02T19:12:00.453Z,8.15
2022-11-02T19:14:34.183Z,11.15
2022-11-02T19:17:02.417Z,6.18
2022-11-02T19:19:30.623Z,6.32
2022-11-02T19:21:58.546Z,8.75
2022-11-02T19:24:26.396Z,13.30
2022-11-02T19:26:54.106Z,15.48
2022-11-02T19:29:22.140Z,24.27
2022-11-02T19:31:49.608Z,26.58
2022-11-02T19:34:17.281Z,26.10
2022-11-02T19:36:44.656Z,47.58
2022-11-02T19:39:12.447Z,52.83
2022-11-02T19:41:40.019Z,51.58
2022-11-02T19:44:08.203Z,12.38
2022-11-02T19:46:36.044Z,32.08
2022-11-02T19:49:04.098Z,37.20
2022-11-02T19:51:32.155Z,41.80
2022-11-02T19:54:02.564Z,22.30
2022-11-02T19:56:33.063Z,13.30
2022-11-02T19:59:02.007Z,10.00
2022-11-02T20:01:32.219Z,29.67
2022-11-02T20:04:00.538Z,13.95
2022-11-02T20:06:39.662Z,25.10
2022-11-02T20:11:40.078Z,10.68
2022-11-02T20:14:08.508Z,9.73
2022-11-02T20:16:36.223Z,7.18
2022-11-02T20:19:05.256Z,6.60
2022-11-02T20:21:38.250Z,6.38
2022-11-02T20:24:11.943Z,6.50
2022-11-02T20:26:44.062Z,8.32
2022-11-02T20:29:15.486Z,11.20
2022-11-02T20:31:46.047Z,7.53
2022-11-02T20:34:14.546Z,14.05
2022-11-02T20:36:42.868Z,11.38
2022-11-02T20:39:12.315Z,10.30
2022-11-02T20:41:39.962Z,11.57
2022-11-02T20:44:08.728Z,7.60
2022-11-02T20:46:40.993Z,9.57
2022-11-02T20:49:22.360Z,5.35
2022-11-02T20:51:57.635Z,6.70
2022-11-02T20:54:29.898Z,17.13
2022-11-02T20:56:57.915Z,20.17
2022-11-02T20:59:26.675Z,11.43
2022-11-02T21:01:54.601Z,9.93
2022-11-02T21:04:23.759Z,7.43
2022-11-02T21:06:52.432Z,7.30
2022-11-02T21:09:21.079Z,5.68
2022-11-02T21:12:07.031Z,5.13
2022-11-02T21:14:34.970Z,4.50
2022-11-02T21:17:03.071Z,4.35
2022-11-02T21:19:30.986Z,4.55
2022-11-02T21:22:00.194Z,5.43
2022-11-02T21:24:29.219Z,4.55
2022-11-02T21:26:57.076Z,4.78
2022-11-02T21:29:24.957Z,5.45
2022-11-02T21:31:52.377Z,5.07
2022-11-02T21:34:20.102Z,4.22
2022-11-02T21:36:48.807Z,5.60
2022-11-02T21:39:16.782Z,4.03
2022-11-02T21:41:44.267Z,4.68
2022-11-02T21:44:12.146Z,5.72
2022-11-02T21:46:39.603Z,4.25
2022-11-02T21:49:07.302Z,4.03
2022-11-02T21:51:35.098Z,4.03
2022-11-02T21:54:02.882Z,3.88
2022-11-02T21:56:32.041Z,3.53
2022-11-02T21:58:59.867Z,4.00
2022-11-02T22:01:46.893Z,3.28
2022-11-02T22:04:21.618Z,3.47
2022-11-02T22:06:50.210Z,3.67
2022-11-02T22:09:18.438Z,3.42
2022-11-02T22:11:45.773Z,3.72
2022-11-02T22:14:14.127Z,3.63
2022-11-02T22:16:43.442Z,3.67
2022-11-02T22:19:13.200Z,2.92
2022-11-02T22:21:43.607Z,7.25
2022-11-02T22:24:11.951Z,4.90
2022-11-02T22:26:39.738Z,4.68
2022-11-02T22:29:07.616Z,5.55
2022-11-02T22:31:37.545Z,4.00
2022-11-02T22:34:06.582Z,5.97
2022-11-02T22:36:35.223Z,4.07
2022-11-02T22:39:05.043Z,3.78
2022-11-02T22:41:36.662Z,3.58
2022-11-02T22:44:08.419Z,4.68
2022-11-02T22:46:41.207Z,4.53
2022-11-02T22:49:10.838Z,5.38
2022-11-02T22:51:40.437Z,5.55
2022-11-02T22:54:10.337Z,4.20
2022-11-02T22:56:38.212Z,3.97
2022-11-02T22:59:07.328Z,3.50
2022-11-02T23:01:36.109Z,3.27
2022-11-02T23:04:04.728Z,2.97
2022-11-02T23:06:32.502Z,3.75
2022-11-02T23:09:00.179Z,3.35
2022-11-02T23:11:30.748Z,3.00
2022-11-02T23:14:08.806Z,3.28
2022-11-02T23:16:44.348Z,2.90
2022-11-02T23:19:30.158Z,3.15
2022-11-02T23:22:21.036Z,2.97
2022-11-02T23:25:10.689Z,3.47
2022-11-02T23:28:13.148Z,3.80
2022-11-02T23:31:00.321Z,3.55
2022-11-02T23:33:32.795Z,3.15
2022-11-02T23:36:15.350Z,3.10
2022-11-02T23:39:03.243Z,3.00
2022-11-02T23:41:32.350Z,2.30
2022-11-02T23:44:12.447Z,2.17
2022-11-02T23:46:45.920Z,2.70
2022-11-02T23:49:13.827Z,3.42
2022-11-02T23:52:16.703Z,2.85
2022-11-02T23:55:02.480Z,3.03
2022-11-02T23:57:30.391Z,3.05
2022-11-02T23:59:57.551Z,2.45
